Tiempo atmosférico en la estación meteorológica de Colunga, Asturias (35 m.)



Fecha
DESCASC
Temp. máxima en grados centígrados (hora)
DESCASC
Temp. mínima en grados centígrados (hora)
DESCASC
Temp. media en grados centígrados
DESCASC
Racha de viento máxima en m/sg (hora)
DESCASC
Velocidad máxima media en intervalos de 10 minutos(hora)
DESCASC
Precipitaciones diarias en mm
DESCASC
Precipitaciones de 00:00 a 06:00 en mm
DESCASC
Precipitaciones de 06:00 a 12:00 en mm
DESCASC
Precipitaciones de 12:00 a 18:00 en mm
DESCASC
Precipitaciones de 18:00 a 24:00 en mm
DESCASC
16-01-2020 20.4 (12:30) 6.9 (01:00) 13.6 10.56 (16:00) 4.72 (13:50) 0.6 0 0 0 0.6
15-01-2020 16.7 (03:30) 6.8 (23:30) 11.8 11.39 (03:30) 5.83 (03:30) 1.8 0 1.8 0 0
14-01-2020 18.1 (15:50) 7.5 (05:10) 12.8 8.89 (16:50) 5 (22:20) 0.2 0 0.2 0 0
13-01-2020 14.7 (12:20) 4.9 (01:50) 9.8 5.56 (19:50) 3.89 (20:10) 0 0 0 0 0
12-01-2020 14.4 (16:10) 3.9 (00:00) 9.1 5 (04:50) 3.61 (07:40) 0 0 0 0 0
11-01-2020 11.9 (16:20) 4.1 (00:00) 8 5.28 (01:20) 3.61 (01:20) 0.2 0 0.2 0 0
10-01-2020 11.4 (14:40) 6.3 (00:00) 8.8 8.06 (01:50) 4.17 (01:50) 4.6 2.2 2 0.4 0
09-01-2020 18.4 (12:10) 7.2 (00:00) 12.8 17.5 (14:30) 7.22 (14:30) 0.4 0 0 0 0.4
08-01-2020 15.3 (15:20) 4.6 (00:00) 10 4.44 (03:20) 3.61 (03:10) 0 0 0 0 0
07-01-2020 13.3 (12:40) 4 (00:00) 8.7 4.44 (03:40) 3.06 (02:00) 0 0 0 0 0
06-01-2020 13.9 (16:00) 4.4 (00:00) 9.1 5.28 (05:30) 3.61 (05:20) 0 0 0 0 0
05-01-2020 12 (15:20) 5.4 (00:00) 8.7 10 (13:10) 6.39 (12:50) 0 0 0 0 0
04-01-2020 11.1 (14:30) 6.1 (00:00) 8.6 5.83 (13:00) 3.61 (13:00) 1.4 0 1 0.4 0
03-01-2020 13.5 (15:30) 7.8 (00:00) 10.7 5 (01:30) 3.61 (01:50) 0.8 0 0.4 0.4 0
02-01-2020 12.3 (13:50) 3.1 (00:00) 7.7 4.17 (21:30) 3.06 (09:40) 0 0 0 0 0
01-01-2020 12.2 (15:50) 5.4 (00:00) 8.8 4.44 (09:00) 3.06 (09:00) 0 0 0 0 0
31-12-2019 14.5 (13:20) 4.3 (00:00) 9.4 5 (07:00) 3.61 (08:20) 0 0 0 0 0
30-12-2019 -- (--) -- (--) -- -- (--) -- (--) -- 0 0 0 --
29-12-2019 13.4 (13:50) 2.4 (00:00) 7.9 4.72 (03:20) 3.33 (03:20) 0 0 0 0 0
28-12-2019 12.9 (15:20) 2.7 (00:00) 7.8 5.83 (06:50) 3.89 (00:10) 0 0 0 0 0
27-12-2019 12.2 (14:30) 3.7 (00:00) 7.9 7.5 (16:50) 4.72 (16:40) 0 0 0 0 0
26-12-2019 20.3 (00:10) 6.4 (00:00) 13.3 9.44 (02:50) 4.72 (02:50) 0 0 0 0 0
25-12-2019 21 (23:50) 8.1 (00:00) 14.6 6.94 (23:40) 4.72 (23:40) 0 0 0 0 0
24-12-2019 19.6 (12:30) 8.6 (00:00) 14.1 5.83 (06:50) 3.61 (01:00) 0 0 0 0 0
23-12-2019 15 (15:10) 8.9 (00:00) 11.9 6.11 (00:30) 3.33 (21:40) 0 0 0 0 0
22-12-2019 17.8 (13:00) 11.8 (00:00) 14.8 19.17 (13:30) 9.17 (13:40) 2.2 0 0 2 0.2
21-12-2019 17.3 (16:20) 8.3 (00:00) 12.8 24.17 (17:00) 9.72 (23:10) 3.6 0 0.2 1.8 1.6

Gráficas

Temp. máximas Temp. mínimas Temp. medias Precipitaciones Rachas de viento máximas Velocidades máximas media en intervalos de 10 minutos

Datos horarios

Fecha y hora oficial Temperatura (ºC) Velocidad del viento (km/h) Dirección del viento Racha (km/h) Dirección de racha Precipitación (mm) Presión (hPa) Tendencia (hPa) Humedad (%)
2020-01-19 23:00:00 9.7 35 Este 67 Nordeste 0 -- -- 64
2020-01-19 22:00:00 9.3 32 Nordeste 58 Nordeste 0 -- -- 66
2020-01-19 21:00:00 9.8 32 Este 52 Este 0 -- -- 67
2020-01-19 20:00:00 9.6 26 Este 51 Este 0 -- -- 67
2020-01-19 19:00:00 9.6 20 Este 43 Este 0 -- -- 65
2020-01-19 18:00:00 9.7 19 Este 40 Este 0 -- -- 65
2020-01-19 17:00:00 10.1 19 Este 42 Este 0 -- -- 63
2020-01-19 16:00:00 10.3 23 Este 41 Este 0 -- -- 65
2020-01-19 15:00:00 10.2 17 Este 43 Este 0 -- -- 68
2020-01-19 14:00:00 9.5 18 Nordeste 47 Este 0.2 -- -- 71
2020-01-19 13:00:00 10.6 21 Este 41 Nordeste 0 -- -- 66
2020-01-19 12:00:00 10.6 16 Este 39 Nordeste 0 -- -- 70
2020-01-19 11:00:00 10.4 17 Nordeste 39 Norte 0 -- -- 72
2020-01-19 10:00:00 10.5 18 Este 44 Este 0 -- -- 71
2020-01-19 09:00:00 10.7 24 Este 42 Este 0 -- -- 73
2020-01-19 08:00:00 10.5 16 Nordeste 45 Nordeste 0 -- -- 73
2020-01-19 07:00:00 10.8 19 Nordeste 45 Norte 0 -- -- 76
2020-01-19 06:00:00 10.4 22 Este 44 Este 0 -- -- 80
2020-01-19 05:00:00 10.9 17 Este 57 Nordeste 0 -- -- 75
2020-01-19 04:00:00 10.8 17 Nordeste 52 Este 0 -- -- 83
2020-01-19 03:00:00 10.6 17 Nordeste 58 Norte 0.2 -- -- 91
2020-01-19 02:00:00 9.8 10 Oeste 24 Oeste 0 -- -- 85
2020-01-19 01:00:00 9.8 12 Oeste 21 Oeste 0 -- -- 83
2020-01-19 00:00:00 9.8 9 Oeste 15 Sudoeste 0 -- -- 81
2020-01-18 23:00:00 10.4 5 Oeste 15 Oeste 0 -- -- 78
2020-01-18 22:00:00 10.4 7 Oeste 15 Oeste 0 -- -- 76
2020-01-18 21:00:00 10.1 8 Oeste 22 Sudoeste 0 -- -- 79
2020-01-18 20:00:00 10 8 Sudoeste 21 Sudoeste 0 -- -- 81
2020-01-18 19:00:00 10 7 Sudoeste 31 Oeste 0.4 -- -- 86
2020-01-18 18:00:00 10.3 3 Sudoeste 20 Sudoeste 0 -- -- 83
2020-01-18 17:00:00 11.1 11 Sudoeste 23 Oeste 0 -- -- 84
2020-01-18 16:00:00 10 8 Oeste 36 Sudoeste 4 -- -- 91
2020-01-18 15:00:00 11.5 21 Sudoeste 44 Sudoeste 1 -- -- 76
2020-01-18 14:00:00 14.9 5 Oeste 16 Norte 0 -- -- 63
2020-01-18 13:00:00 14.3 3 Noroeste 13 Nordeste 0 -- -- 65
2020-01-18 12:00:00 12.3 8 Nordeste 21 Este 0 -- -- 75
2020-01-18 11:00:00 11.4 13 Este 23 Este 0 -- -- 82
2020-01-18 10:00:00 7.7 7 Sudoeste 12 Oeste 0 -- -- 88
2020-01-18 09:00:00 7.7 6 Sudoeste 13 Sudoeste 0 -- -- 85
2020-01-18 08:00:00 7.8 5 Sudoeste 19 Este 0 -- -- 83
2020-01-18 07:00:00 9.8 12 Este 26 Este 0 -- -- 80
2020-01-18 06:00:00 9.9 17 Este 33 Este 0 -- -- 76
2020-01-18 05:00:00 10.1 15 Este 32 Este 0 -- -- 78
2020-01-18 04:00:00 10.2 16 Este 25 Este 0 -- -- 79
2020-01-18 03:00:00 9.7 10 Este 16 Este 0 -- -- 83
2020-01-18 02:00:00 9.3 8 Este 14 Este 0 -- -- 91
2020-01-18 01:00:00 6.3 0 Calma 9 Sudoeste 0 -- -- 94
2020-01-18 00:00:00 6.2 3 Sudoeste 9 Sudoeste 0 -- -- 92
2020-01-17 23:00:00 6.3 4 Sudoeste 10 Oeste 0 -- -- 90
2020-01-17 22:00:00 7.1 7 Sudoeste 12 Sudoeste 0 -- -- 87
2020-01-17 21:00:00 7.1 8 Sudoeste 10 Oeste 0 -- -- 88
2020-01-17 20:00:00 7.8 6 Sudoeste 9 Sudoeste 0 -- -- 86
2020-01-17 19:00:00 8 3 Oeste 5 Oeste 0 -- -- 84
2020-01-17 18:00:00 9.9 2 Oeste 14 Sudoeste 0 -- -- 76
2020-01-17 17:00:00 11.4 8 Sudoeste 21 Sudoeste 0 -- -- 70
2020-01-17 16:00:00 12.1 7 Oeste 28 Sudoeste 0 -- -- 66
2020-01-17 15:00:00 14 12 Oeste 34 Oeste 0 -- -- 50
2020-01-17 14:00:00 13.5 17 Oeste 37 Sudoeste 0 -- -- 52
2020-01-17 13:00:00 13 18 Oeste 38 Oeste 0 -- -- 55
2020-01-17 12:00:00 12.6 17 Oeste 31 Sudoeste 0 -- -- 58
2020-01-17 11:00:00 11.5 13 Oeste 31 Sudoeste 0 -- -- 63
2020-01-17 10:00:00 10.4 12 Oeste 30 Oeste 0 -- -- 69
2020-01-17 09:00:00 8.9 4 Sudoeste 13 Sudoeste 0 -- -- 76
2020-01-17 08:00:00 9.7 5 Sudoeste 27 Sudoeste 0 -- -- 76
2020-01-17 07:00:00 11 14 Oeste 32 Oeste 0 -- -- 68
2020-01-17 06:00:00 10.5 8 Oeste 21 Sudoeste 0.2 -- -- 75
2020-01-17 05:00:00 10.7 7 Sudoeste 18 Sudoeste 0 -- -- 81
2020-01-17 04:00:00 11 9 Sudoeste 17 Sudoeste 0 -- -- 88
2020-01-17 03:00:00 9.8 5 Oeste 10 Sudoeste 0 -- -- 98
2020-01-17 02:00:00 10.5 0 Calma 11 Oeste 0 -- -- 98
2020-01-17 01:00:00 10 4 Oeste 9 Oeste 0.6 -- -- 98
2020-01-17 00:00:00 10.6 4 Sudoeste 12 Noroeste 0 -- -- 97
2020-01-16 23:00:00 10.7 4 Sur 12 Oeste 0 -- -- 96
2020-01-16 22:00:00 10.1 7 Sudoeste 12 Sudoeste 0 -- -- 95
2020-01-16 21:00:00 11.5 7 Sudoeste 23 Sur 0.2 -- -- 92
2020-01-16 20:00:00 12.7 4 Nordeste 15 Sudoeste 0.4 -- -- 91
2020-01-16 19:00:00 13.2 3 Este 28 Oeste 0 -- -- 86
2020-01-16 18:00:00 16.9 2 Sudoeste 13 Sudoeste 0 -- -- 50
2020-01-16 17:00:00 18.7 10 Sudoeste 29 Sur 0 -- -- 46
2020-01-16 16:00:00 19.3 15 Sudoeste 38 Sudoeste 0 -- -- 44
2020-01-16 15:00:00 19.6 14 Sudoeste 33 Sudoeste 0 -- -- 45
2020-01-16 14:00:00 19.9 4 Sudoeste 34 Sudoeste 0 -- -- 47
2020-01-16 13:00:00 19.8 10 Sur 28 Sudeste 0 -- -- 48
2020-01-16 12:00:00 18.9 12 Sudeste 21 Sudeste 0 -- -- 51
2020-01-16 11:00:00 17.2 5 Sudoeste 18 Sudoeste 0 -- -- 58
2020-01-16 10:00:00 16.5 6 Sudoeste 31 Sur 0 -- -- 60
2020-01-16 09:00:00 12 5 Sudoeste 15 Oeste 0 -- -- 80
2020-01-16 08:00:00 9.8 3 Oeste 21 Sudoeste 0 -- -- 86
2020-01-16 07:00:00 9.2 6 Oeste 15 Sur 0 -- -- 86
2020-01-16 06:00:00 9 7 Sudoeste 18 Sudoeste 0 -- -- 93
2020-01-16 05:00:00 8.1 3 Sudoeste 15 Sudoeste 0 -- -- 95
2020-01-16 04:00:00 7.6 9 Oeste 18 Sudoeste 0 -- -- 98
2020-01-16 03:00:00 7.6 6 Sudoeste 18 Sudoeste 0 -- -- 96
2020-01-16 02:00:00 7.6 10 Sudoeste 16 Oeste 0 -- -- 97
2020-01-16 01:00:00 6.9 13 Sudoeste 19 Oeste 0 -- -- 96
2020-01-16 00:00:00 8.2 3 Norte 11 Nordeste 0 -- -- 95
2020-01-15 23:00:00 8.1 4 Sudeste 18 Este 0 -- -- 92
2020-01-15 22:00:00 10.8 10 Este 22 Este 0 -- -- 90
2020-01-15 21:00:00 10.7 8 Este 17 Este 0 -- -- 91
2020-01-15 20:00:00 11.2 12 Este 18 Nordeste 0 -- -- 90
2020-01-15 19:00:00 11.4 10 Este 19 Este 0 -- -- 89
2020-01-15 18:00:00 12.1 6 Este 9 Este 0 -- -- 88
2020-01-15 17:00:00 12.6 3 Este 6 Este 0 -- -- 85
2020-01-15 16:00:00 12.8 0 Calma 9 Oeste 0 -- -- 80
2020-01-15 15:00:00 12.9 0 Calma 14 Oeste 0 -- -- 77
2020-01-15 14:00:00 12.8 7 Oeste 23 Oeste 0 -- -- 81
2020-01-15 13:00:00 12.7 10 Oeste 26 Oeste 0 -- -- 86
2020-01-15 12:00:00 13 13 Oeste 24 Oeste 0 -- -- 86
2020-01-15 11:00:00 12.5 15 Noroeste 27 Oeste 0.6 -- -- 89
2020-01-15 10:00:00 11.5 12 Sudoeste 24 Sudoeste 1 -- -- 91
2020-01-15 09:00:00 12.1 11 Sudoeste 34 Sudoeste 0.2 -- -- 85
2020-01-15 08:00:00 11.8 7 Sudoeste 13 Sudoeste 0 -- -- 72
2020-01-15 07:00:00 11.5 3 Oeste 6 Sur 0 -- -- 73
2020-01-15 06:00:00 13.5 3 Oeste 26 Este 0 -- -- 64
2020-01-15 05:00:00 16.3 15 Sudeste 35 Sudeste 0 -- -- 51
2020-01-15 04:00:00 16.3 14 Sur 41 Sur 0 -- -- 50
2020-01-15 03:00:00 14.6 7 Sudoeste 28 Sur 0 -- -- 55
2020-01-15 02:00:00 13.4 3 Sudoeste 15 Este 0 -- -- 60
2020-01-15 01:00:00 15 0 Calma 29 Sudeste 0 -- -- 52
2020-01-15 00:00:00 16 11 Nordeste 30 Este 0 -- -- 50
2020-01-14 23:00:00 15.5 9 Norte 28 Sur 0 -- -- 51
2020-01-14 22:00:00 14 11 Sur 18 Sudoeste 0 -- -- 54
2020-01-14 21:00:00 12.3 2 Noroeste 12 Sudoeste 0 -- -- 63
2020-01-14 20:00:00 14.2 9 Sudoeste 18 Sur 0 -- -- 52
2020-01-14 19:00:00 11.9 3 Sudoeste 7 Oeste 0 -- -- 65
2020-01-14 18:00:00 14.5 6 Sudoeste 22 Sur 0 -- -- 52
2020-01-14 17:00:00 17.1 14 Sur 32 Sur 0 -- -- 44
2020-01-14 16:00:00 17.4 15 Sur 29 Sudoeste 0 -- -- 42
2020-01-14 15:00:00 17.5 5 Nordeste 14 Nordeste 0 -- -- 45
2020-01-14 14:00:00 16.6 5 Nordeste 9 Nordeste 0 -- -- 58
2020-01-14 13:00:00 15 3 Sur 10 Noroeste 0 -- -- 76
2020-01-14 12:00:00 13.5 5 Noroeste 11 Noroeste 0 -- -- 81
2020-01-14 11:00:00 11.3 2 Noroeste 13 Sudoeste 0 -- -- 90
2020-01-14 10:00:00 10.2 4 Sudoeste 13 Sur 0.2 -- -- 92
2020-01-14 09:00:00 10.1 5 Oeste 14 Sudoeste 0 -- -- 87
2020-01-14 08:00:00 10.3 5 Noroeste 15 Sudoeste 0 -- -- 84
2020-01-14 07:00:00 9.4 4 Oeste 13 Oeste 0 -- -- 85
2020-01-14 06:00:00 8.2 0 Calma 8 Sudoeste 0 -- -- 87
2020-01-14 05:00:00 7.7 0 Calma 7 Sudoeste 0 -- -- 86
2020-01-14 04:00:00 8.8 3 Sudoeste 12 Oeste 0 -- -- 80
2020-01-14 03:00:00 9.3 5 Sudoeste 20 Sudoeste 0 -- -- 75
2020-01-14 02:00:00 9.1 6 Noroeste 17 Sudoeste 0 -- -- 77
2020-01-14 01:00:00 8.6 0 Calma 7 Sur 0 -- -- 77
2020-01-14 00:00:00 9 2 Sudoeste 11 Oeste 0 -- -- 73
2020-01-13 23:00:00 12 3 Norte 9 Sudeste 0 -- -- 61
2020-01-13 22:00:00 7.9 0 Calma 15 Sudoeste 0 -- -- 75
2020-01-13 21:00:00 10.6 11 Sudoeste 18 Sudoeste 0 -- -- 61
2020-01-13 20:00:00 11.4 12 Oeste 20 Oeste 0 -- -- 61
2020-01-13 19:00:00 10.5 11 Sudoeste 15 Sudoeste 0 -- -- 77
2020-01-13 18:00:00 10.5 3 Sudoeste 8 Oeste 0 -- -- 79
2020-01-13 17:00:00 13.6 4 Sudoeste 8 Sudoeste 0 -- -- 77
2020-01-13 16:00:00 13.3 0 Calma 3 Este 0 -- -- 75
2020-01-13 15:00:00 13.2 0 Calma 8 Nordeste 0 -- -- 69
2020-01-13 14:00:00 13.4 5 Nordeste 11 Nordeste 0 -- -- 70
2020-01-13 13:00:00 13 8 Nordeste 10 Nordeste 0 -- -- 76
2020-01-13 12:00:00 13.1 3 Sur 11 Sudoeste 0 -- -- 73
2020-01-13 11:00:00 9 7 Sudoeste 14 Oeste 0 -- -- 82
2020-01-13 10:00:00 7.9 9 Sudoeste 16 Oeste 0 -- -- 81
2020-01-13 09:00:00 6.4 10 Sudoeste 14 Oeste 0 -- -- 87
2020-01-13 08:00:00 6.9 10 Sudoeste 15 Sudoeste 0 -- -- 86
2020-01-13 07:00:00 5.8 9 Sudoeste 13 Sudoeste 0 -- -- 90
2020-01-13 06:00:00 6.5 9 Oeste 14 Sudoeste 0 -- -- 89
2020-01-13 05:00:00 5.8 7 Sudoeste 12 Oeste 0 -- -- 92
2020-01-13 04:00:00 5 5 Sudoeste 14 Sudoeste 0 -- -- 90
2020-01-13 03:00:00 5.6 10 Sudoeste 14 Sudoeste 0 -- -- 86
2020-01-13 02:00:00 5.5 7 Sudoeste 12 Sudoeste 0 -- -- 90
2020-01-13 01:00:00 5.5 10 Sudoeste 15 Sudoeste 0 -- -- 84
2020-01-13 00:00:00 6.9 11 Oeste 16 Oeste 0 -- -- 79
2020-01-12 23:00:00 6.2 9 Sudoeste 14 Oeste 0 -- -- 81
2020-01-12 22:00:00 6.2 7 Sudoeste 12 Sudoeste 0 -- -- 85
2020-01-12 21:00:00 6.7 8 Oeste 12 Sudoeste 0 -- -- 86
2020-01-12 20:00:00 7.7 9 Sudoeste 13 Sudoeste 0 -- -- 87
2020-01-12 19:00:00 7.6 4 Oeste 6 Sudoeste 0 -- -- 90
2020-01-12 18:00:00 9.3 0 Calma 8 Nordeste 0 -- -- 80
2020-01-12 17:00:00 12.6 4 Nordeste 6 Nordeste 0 -- -- 78
2020-01-12 16:00:00 14.2 2 Sudeste 8 Nordeste 0 -- -- 73
2020-01-12 15:00:00 12.4 7 Nordeste 9 Norte 0 -- -- 80
2020-01-12 14:00:00 12.5 5 Nordeste 8 Nordeste 0 -- -- 72
2020-01-12 13:00:00 13.8 2 Sudeste 6 Nordeste 0 -- -- 67
2020-01-12 12:00:00 11.2 3 Nordeste 7 Este 0 -- -- 77
2020-01-12 11:00:00 8 0 Calma 4 Sudoeste 0 -- -- 86
2020-01-12 10:00:00 5.8 5 Sudoeste 14 Sudoeste 0 -- -- 83
2020-01-12 09:00:00 4.7 11 Sudoeste 15 Sudoeste 0 -- -- 85
2020-01-12 08:00:00 4.4 10 Sudoeste 18 Sudoeste 0 -- -- 87
2020-01-12 07:00:00 4 12 Sudoeste 17 Sudoeste 0 -- -- 89
2020-01-12 06:00:00 4.4 11 Sudoeste 16 Sudoeste 0 -- -- 88
2020-01-12 05:00:00 5 11 Sudoeste 18 Oeste 0 -- -- 87
2020-01-12 04:00:00 4.4 11 Sudoeste 17 Oeste 0 -- -- 90
2020-01-12 03:00:00 4.8 11 Oeste 16 Oeste 0 -- -- 90
2020-01-12 02:00:00 5.1 10 Sudoeste 15 Sudoeste 0 -- -- 88
2020-01-12 01:00:00 5.1 10 Sudoeste 17 Sudoeste 0 -- -- 90
2020-01-12 00:00:00 5.5 10 Sudoeste 14 Sudoeste 0 -- -- 89
2020-01-11 23:00:00 5.5 10 Sudoeste 15 Oeste 0 -- -- 89
2020-01-11 22:00:00 7.2 10 Oeste 15 Sudoeste 0 -- -- 84
2020-01-11 21:00:00 7.1 9 Oeste 14 Oeste 0 -- -- 91
2020-01-11 20:00:00 6.7 4 Sudoeste 9 Sudoeste 0 -- -- 94
2020-01-11 19:00:00 7.4 5 Oeste 7 Oeste 0 -- -- 91
2020-01-11 18:00:00 9.2 0 Calma 6 Nordeste 0 -- -- 86
2020-01-11 17:00:00 11.1 5 Nordeste 6 Nordeste 0 -- -- 77
2020-01-11 16:00:00 11.4 3 Nordeste 7 Nordeste 0 -- -- 78
2020-01-11 15:00:00 10.9 6 Nordeste 9 Norte 0 -- -- 78
2020-01-11 14:00:00 11.4 7 Nordeste 10 Nordeste 0 -- -- 77
2020-01-11 13:00:00 10.9 8 Nordeste 10 Nordeste 0 -- -- 78
2020-01-11 12:00:00 10.5 3 Sur 10 Sudoeste 0 -- -- 79
2020-01-11 11:00:00 7.4 8 Sudoeste 14 Sudoeste 0 -- -- 89
2020-01-11 10:00:00 5.8 11 Oeste 17 Oeste 0.2 -- -- 93
2020-01-11 09:00:00 4.4 10 Sudoeste 16 Oeste 0 -- -- 96
2020-01-11 08:00:00 4.3 9 Sudoeste 16 Oeste 0 -- -- 95
2020-01-11 07:00:00 5.1 10 Oeste 18 Oeste 0 -- -- 94
2020-01-11 06:00:00 5.3 11 Oeste 18 Oeste 0 -- -- 96
2020-01-11 05:00:00 4.8 8 Sudoeste 15 Oeste 0 -- -- 96
2020-01-11 04:00:00 5.3 9 Sudoeste 16 Oeste 0 -- -- 96
2020-01-11 03:00:00 5.6 10 Oeste 15 Sudoeste 0 -- -- 96
2020-01-11 02:00:00 6.2 11 Sudoeste 19 Oeste 0 -- -- 95
2020-01-11 01:00:00 6.1 11 Oeste 17 Oeste 0 -- -- 97
2020-01-11 00:00:00 6.5 10 Oeste 17 Oeste 0 -- -- 97
2020-01-10 23:00:00 6.3 11 Sudoeste 16 Oeste 0 -- -- 97
2020-01-10 22:00:00 6.5 7 Sudoeste 13 Oeste 0 -- -- 96
2020-01-10 21:00:00 7.3 7 Sudoeste 14 Oeste 0 -- -- 95
2020-01-10 20:00:00 8.4 9 Oeste 13 Oeste 0 -- -- 95
2020-01-10 19:00:00 9 6 Oeste 11 Oeste 0 -- -- 94
2020-01-10 18:00:00 9.4 6 Oeste 9 Oeste 0 -- -- 93
2020-01-10 17:00:00 10.3 3 Oeste 9 Sudoeste 0 -- -- 92
2020-01-10 16:00:00 10.5 7 Sudoeste 12 Sudoeste 0 -- -- 90
2020-01-10 15:00:00 11.2 4 Norte 14 Sudoeste 0 -- -- 85
2020-01-10 14:00:00 11.3 4 Sudoeste 9 Oeste 0 -- -- 88
2020-01-10 13:00:00 10.5 5 Oeste 17 Oeste 0.4 -- -- 87
2020-01-10 12:00:00 9.6 10 Oeste 19 Oeste 0 -- -- 89
2020-01-10 11:00:00 9.2 10 Oeste 23 Oeste 0 -- -- 89
2020-01-10 10:00:00 8.7 9 Oeste 20 Oeste 0.2 -- -- 89
2020-01-10 09:00:00 8.5 12 Oeste 22 Oeste 0 -- -- 90
2020-01-10 08:00:00 8.2 10 Oeste 22 Oeste 1.6 -- -- 90
2020-01-10 07:00:00 8.5 10 Oeste 20 Oeste 0.2 -- -- 87
2020-01-10 06:00:00 8.8 12 Oeste 24 Sudoeste 0.2 -- -- 83
2020-01-10 05:00:00 8.7 11 Oeste 22 Noroeste 0.2 -- -- 82
2020-01-10 04:00:00 8.7 11 Oeste 20 Oeste 0.4 -- -- 86
2020-01-10 03:00:00 9.1 6 Oeste 19 Oeste 1.4 -- -- 83
2020-01-10 02:00:00 10.2 13 Sudoeste 29 Sudoeste 0 -- -- 73
2020-01-10 01:00:00 10.4 12 Oeste 26 Oeste 0 -- -- 72
2020-01-10 00:00:00 10.2 8 Oeste 20 Noroeste 0.4 -- -- 74
2020-01-09 23:00:00 11.3 8 Noroeste 24 Sudoeste 0 -- -- 61
2020-01-09 22:00:00 11.7 13 Oeste 26 Oeste 0 -- -- 59
2020-01-09 21:00:00 11.3 11 Sudoeste 29 Sudoeste 0 -- -- 62
2020-01-09 20:00:00 10.9 6 Sudoeste 29 Oeste 0 -- -- 67
2020-01-09 19:00:00 12 8 Oeste 31 Oeste 0 -- -- 66
2020-01-09 18:00:00 13 18 Oeste 50 Oeste 0 -- -- 63
2020-01-09 17:00:00 12.9 18 Oeste 35 Oeste 0 -- -- 71
2020-01-09 16:00:00 11.9 20 Oeste 44 Oeste 0 -- -- 81
2020-01-09 15:00:00 12 18 Oeste 63 Sudoeste 0 -- -- 82
2020-01-09 14:00:00 17 6 Este 20 Noroeste 0 -- -- 62
2020-01-09 13:00:00 17.5 6 Nordeste 8 Nordeste 0 -- -- 58
2020-01-09 12:00:00 17.6 2 Este 8 Sudoeste 0 -- -- 60
2020-01-09 11:00:00 13.8 4 Sudoeste 19 Sudoeste 0 -- -- 75
2020-01-09 10:00:00 10.5 10 Sudoeste 17 Oeste 0 -- -- 84
2020-01-09 09:00:00 8.8 8 Sudoeste 17 Sudoeste 0 -- -- 88
2020-01-09 08:00:00 8.6 5 Oeste 9 Sudoeste 0 -- -- 86
2020-01-09 07:00:00 9.7 0 Calma 15 Oeste 0 -- -- 80
2020-01-09 06:00:00 13.1 13 Oeste 22 Oeste 0 -- -- 67
2020-01-09 05:00:00 8.2 12 Sudoeste 17 Oeste 0 -- -- 84
2020-01-09 04:00:00 7.7 9 Sudoeste 12 Sudoeste 0 -- -- 89
2020-01-09 03:00:00 7.7 3 Sudoeste 13 Sudoeste 0 -- -- 87
2020-01-09 02:00:00 9.6 8 Oeste 14 Sudoeste 0 -- -- 83
2020-01-09 01:00:00 7.7 10 Sudoeste 12 Oeste 0 -- -- 91
2020-01-09 00:00:00 7.2 2 Sudoeste 5 Sudoeste 0 -- -- 92
2020-01-08 23:00:00 8.9 3 Oeste 5 Oeste 0 -- -- 90
2020-01-08 22:00:00 8.3 0 Calma 6 Oeste 0 -- -- 92
2020-01-08 21:00:00 8.4 3 Sudoeste 8 Sudoeste 0 -- -- 90
2020-01-08 20:00:00 8.8 3 Oeste 5 Sudoeste 0 -- -- 89
2020-01-08 19:00:00 11.2 0 Calma 4 Oeste 0 -- -- 84
2020-01-08 18:00:00 12.8 0 Calma 8 Nordeste 0 -- -- 77
2020-01-08 17:00:00 13.3 3 Norte 8 Nordeste 0 -- -- 74
2020-01-08 16:00:00 14.7 4 Nordeste 8 Este 0 -- -- 55
2020-01-08 15:00:00 14.6 5 Nordeste 10 Nordeste 0 -- -- 54
2020-01-08 14:00:00 13.4 9 Nordeste 11 Nordeste 0 -- -- 73
2020-01-08 13:00:00 14 6 Nordeste 9 Nordeste 0 -- -- 64
2020-01-08 12:00:00 12.9 4 Nordeste 8 Oeste 0 -- -- 68
2020-01-08 11:00:00 11 5 Sudoeste 12 Sudoeste 0 -- -- 71
2020-01-08 10:00:00 8.5 10 Sudoeste 14 Oeste 0 -- -- 77
2020-01-08 09:00:00 5.6 5 Sudoeste 10 Sudoeste 0 -- -- 87
2020-01-08 08:00:00 6.3 2 Sudoeste 12 Sudoeste 0 -- -- 82
2020-01-08 07:00:00 6.9 10 Sudoeste 12 Sudoeste 0 -- -- 83
2020-01-08 06:00:00 5.1 4 Sudoeste 8 Sudoeste 0 -- -- 86
2020-01-08 05:00:00 6.3 0 Calma 15 Oeste 0 -- -- 76
2020-01-08 04:00:00 6.3 8 Sudoeste 16 Oeste 0 -- -- 77
2020-01-08 03:00:00 5 9 Sudoeste 14 Sudoeste 0 -- -- 86
2020-01-08 02:00:00 5.4 10 Sudoeste 14 Oeste 0 -- -- 85
2020-01-08 01:00:00 5.6 10 Sudoeste 12 Sudoeste 0 -- -- 89
2020-01-08 00:00:00 4.6 3 Sudoeste 9 Sudoeste 0 -- -- 92
2020-01-07 23:00:00 5.4 3 Sudoeste 11 Sudoeste 0 -- -- 90
2020-01-07 22:00:00 7.1 10 Oeste 15 Oeste 0 -- -- 91
2020-01-07 21:00:00 7.4 10 Sudoeste 14 Sudoeste 0 -- -- 94
2020-01-07 20:00:00 7.2 8 Sudoeste 10 Sudoeste 0 -- -- 94
2020-01-07 19:00:00 8 4 Sudoeste 5 Sudoeste 0 -- -- 93
2020-01-07 18:00:00 9.8 2 Noroeste 5 Nordeste 0 -- -- 85
2020-01-07 17:00:00 12.4 3 Nordeste 6 Nordeste 0 -- -- 79
2020-01-07 16:00:00 13.2 3 Nordeste 8 Nordeste 0 -- -- 70
2020-01-07 15:00:00 12.8 7 Nordeste 10 Norte 0 -- -- 68
2020-01-07 14:00:00 12.5 6 Nordeste 9 Nordeste 0 -- -- 70
2020-01-07 13:00:00 12.2 7 Nordeste 9 Nordeste 0 -- -- 75
2020-01-07 12:00:00 11.4 2 Sur 12 Sudoeste 0 -- -- 79
2020-01-07 11:00:00 7.8 8 Sudoeste 13 Sudoeste 0 -- -- 84
2020-01-07 10:00:00 5.5 10 Sudoeste 14 Sudoeste 0 -- -- 88
2020-01-07 09:00:00 4.4 4 Sudoeste 14 Oeste 0 -- -- 91
2020-01-07 08:00:00 4.5 8 Oeste 12 Sudoeste 0 -- -- 94
2020-01-07 07:00:00 4.2 3 Sudoeste 10 Sudoeste 0 -- -- 93
2020-01-07 06:00:00 4.7 2 Oeste 14 Sudoeste 0 -- -- 90
2020-01-07 05:00:00 6.5 10 Sudoeste 15 Sudoeste 0 -- -- 90
2020-01-07 04:00:00 6.2 7 Sudoeste 16 Sudoeste 0 -- -- 92
2020-01-07 03:00:00 6.5 7 Sudoeste 15 Oeste 0 -- -- 91
2020-01-07 02:00:00 6.3 11 Sudoeste 16 Oeste 0 -- -- 94
2020-01-07 01:00:00 6.5 8 Sudoeste 16 Oeste 0 -- -- 93
2020-01-07 00:00:00 6.5 10 Oeste 15 Oeste 0 -- -- 97
2020-01-06 23:00:00 5.8 9 Sudoeste 13 Sudoeste 0 -- -- 95
2020-01-06 22:00:00 5.9 10 Sudoeste 13 Sudoeste 0 -- -- 96
2020-01-06 21:00:00 6.4 6 Oeste 12 Sudoeste 0 -- -- 93
2020-01-06 20:00:00 7.2 6 Sudoeste 13 Sudoeste 0 -- -- 93
2020-01-06 19:00:00 7.4 3 Oeste 6 Sudoeste 0 -- -- 90
2020-01-06 18:00:00 9.8 3 Oeste 6 Noroeste 0 -- -- 80
2020-01-06 17:00:00 13.1 3 Este 11 Nordeste 0 -- -- 69
2020-01-06 16:00:00 13.9 4 Sur 12 Oeste 0 -- -- 65
2020-01-06 15:00:00 12.4 7 Oeste 14 Noroeste 0 -- -- 70
2020-01-06 14:00:00 12.6 7 Sudoeste 19 Sudoeste 0 -- -- 72
2020-01-06 13:00:00 13.1 10 Sudoeste 17 Sudoeste 0 -- -- 73
2020-01-06 12:00:00 11.7 5 Sudoeste 12 Sudoeste 0 -- -- 83
2020-01-06 11:00:00 9.4 7 Sudoeste 12 Sudoeste 0 -- -- 89
2020-01-06 10:00:00 8.1 7 Sudoeste 14 Oeste 0 -- -- 89